sensor_id;sensor_type;location;lat;lon;timestamp;temperature;humidity
12839;DHT22;6486;51.034;5.262;2023-04-15T00:00:40;10.30;54.80
12839;DHT22;6486;51.034;5.262;2023-04-15T00:03:06;10.30;54.80
12839;DHT22;6486;51.034;5.262;2023-04-15T00:05:32;10.30;54.90
12839;DHT22;6486;51.034;5.262;2023-04-15T00:07:59;10.20;54.90
12839;DHT22;6486;51.034;5.262;2023-04-15T00:10:26;10.20;55.00
12839;DHT22;6486;51.034;5.262;2023-04-15T00:12:52;10.20;55.00
12839;DHT22;6486;51.034;5.262;2023-04-15T00:15:17;10.20;55.10
12839;DHT22;6486;51.034;5.262;2023-04-15T00:17:43;10.20;55.10
12839;DHT22;6486;51.034;5.262;2023-04-15T00:20:09;10.20;55.30
12839;DHT22;6486;51.034;5.262;2023-04-15T00:22:35;10.10;55.30
12839;DHT22;6486;51.034;5.262;2023-04-15T00:25:01;10.20;55.40
12839;DHT22;6486;51.034;5.262;2023-04-15T00:27:26;10.20;55.50
12839;DHT22;6486;51.034;5.262;2023-04-15T00:29:52;10.20;55.50
12839;DHT22;6486;51.034;5.262;2023-04-15T00:32:18;10.20;55.50
12839;DHT22;6486;51.034;5.262;2023-04-15T00:34:44;10.20;55.50
12839;DHT22;6486;51.034;5.262;2023-04-15T00:37:10;10.20;55.60
12839;DHT22;6486;51.034;5.262;2023-04-15T00:39:37;10.20;55.60
12839;DHT22;6486;51.034;5.262;2023-04-15T00:42:04;10.20;55.60
12839;DHT22;6486;51.034;5.262;2023-04-15T00:44:30;10.20;55.60
12839;DHT22;6486;51.034;5.262;2023-04-15T00:46:57;10.20;55.70
12839;DHT22;6486;51.034;5.262;2023-04-15T00:49:23;10.20;55.80
12839;DHT22;6486;51.034;5.262;2023-04-15T00:51:49;10.20;55.90
12839;DHT22;6486;51.034;5.262;2023-04-15T00:54:15;10.30;56.00
12839;DHT22;6486;51.034;5.262;2023-04-15T00:56:41;10.30;56.00
12839;DHT22;6486;51.034;5.262;2023-04-15T00:59:07;10.30;56.00
12839;DHT22;6486;51.034;5.262;2023-04-15T01:01:36;10.30;56.00
12839;DHT22;6486;51.034;5.262;2023-04-15T01:04:02;10.30;56.00
12839;DHT22;6486;51.034;5.262;2023-04-15T01:06:29;10.40;56.80
12839;DHT22;6486;51.034;5.262;2023-04-15T01:08:55;10.30;56.10
12839;DHT22;6486;51.034;5.262;2023-04-15T01:11:22;10.40;56.20
12839;DHT22;6486;51.034;5.262;2023-04-15T01:13:49;10.40;56.20
12839;DHT22;6486;51.034;5.262;2023-04-15T01:16:15;10.40;56.20
12839;DHT22;6486;51.034;5.262;2023-04-15T01:18:41;10.40;56.20
12839;DHT22;6486;51.034;5.262;2023-04-15T01:21:07;10.40;56.30
12839;DHT22;6486;51.034;5.262;2023-04-15T01:23:35;10.40;56.40
12839;DHT22;6486;51.034;5.262;2023-04-15T01:26:03;10.40;56.40
12839;DHT22;6486;51.034;5.262;2023-04-15T01:28:28;10.40;56.40
12839;DHT22;6486;51.034;5.262;2023-04-15T01:31:14;10.40;56.50
12839;DHT22;6486;51.034;5.262;2023-04-15T01:33:41;10.40;56.60
12839;DHT22;6486;51.034;5.262;2023-04-15T01:36:07;10.40;57.20
12839;DHT22;6486;51.034;5.262;2023-04-15T01:38:34;10.40;56.70
12839;DHT22;6486;51.034;5.262;2023-04-15T01:41:00;10.40;56.70
12839;DHT22;6486;51.034;5.262;2023-04-15T01:43:26;10.50;56.80
12839;DHT22;6486;51.034;5.262;2023-04-15T01:45:52;10.50;56.80
12839;DHT22;6486;51.034;5.262;2023-04-15T01:48:18;10.50;56.90
12839;DHT22;6486;51.034;5.262;2023-04-15T01:50:44;10.50;56.90
12839;DHT22;6486;51.034;5.262;2023-04-15T01:53:10;10.40;56.90
12839;DHT22;6486;51.034;5.262;2023-04-15T01:55:35;10.40;56.90
12839;DHT22;6486;51.034;5.262;2023-04-15T01:58:02;10.40;56.80
12839;DHT22;6486;51.034;5.262;2023-04-15T02:00:27;10.50;56.80
12839;DHT22;6486;51.034;5.262;2023-04-15T02:02:55;10.50;56.80
12839;DHT22;6486;51.034;5.262;2023-04-15T02:05:20;10.50;56.90
12839;DHT22;6486;51.034;5.262;2023-04-15T02:07:46;10.50;56.90
12839;DHT22;6486;51.034;5.262;2023-04-15T02:10:12;10.50;57.00
12839;DHT22;6486;51.034;5.262;2023-04-15T02:12:38;10.50;57.00
12839;DHT22;6486;51.034;5.262;2023-04-15T02:15:05;10.50;57.00
12839;DHT22;6486;51.034;5.262;2023-04-15T02:17:33;10.50;57.10
12839;DHT22;6486;51.034;5.262;2023-04-15T02:20:00;10.50;57.10
12839;DHT22;6486;51.034;5.262;2023-04-15T02:22:25;10.60;57.20
12839;DHT22;6486;51.034;5.262;2023-04-15T02:24:51;10.60;57.20
12839;DHT22;6486;51.034;5.262;2023-04-15T02:27:17;10.50;57.20
12839;DHT22;6486;51.034;5.262;2023-04-15T02:29:45;10.60;57.30
12839;DHT22;6486;51.034;5.262;2023-04-15T02:32:12;10.60;57.20
12839;DHT22;6486;51.034;5.262;2023-04-15T02:34:40;10.60;57.20
12839;DHT22;6486;51.034;5.262;2023-04-15T02:37:11;10.70;57.30
12839;DHT22;6486;51.034;5.262;2023-04-15T02:39:37;10.60;57.30
12839;DHT22;6486;51.034;5.262;2023-04-15T02:42:03;10.60;57.30
12839;DHT22;6486;51.034;5.262;2023-04-15T02:44:30;10.50;57.30
12839;DHT22;6486;51.034;5.262;2023-04-15T02:46:57;10.60;57.40
12839;DHT22;6486;51.034;5.262;2023-04-15T02:49:23;10.60;57.40
12839;DHT22;6486;51.034;5.262;2023-04-15T02:51:49;10.60;57.50
12839;DHT22;6486;51.034;5.262;2023-04-15T02:54:19;10.60;57.60
12839;DHT22;6486;51.034;5.262;2023-04-15T02:56:45;10.60;57.50
12839;DHT22;6486;51.034;5.262;2023-04-15T02:59:13;10.60;57.60
12839;DHT22;6486;51.034;5.262;2023-04-15T03:01:39;10.60;57.60
12839;DHT22;6486;51.034;5.262;2023-04-15T03:04:05;10.60;57.70
12839;DHT22;6486;51.034;5.262;2023-04-15T03:06:33;10.60;57.70
12839;DHT22;6486;51.034;5.262;2023-04-15T03:08:59;10.60;57.70
12839;DHT22;6486;51.034;5.262;2023-04-15T03:11:25;10.60;57.70
12839;DHT22;6486;51.034;5.262;2023-04-15T03:13:51;10.60;57.60
12839;DHT22;6486;51.034;5.262;2023-04-15T03:16:17;10.60;57.60
12839;DHT22;6486;51.034;5.262;2023-04-15T03:18:43;10.50;57.60
12839;DHT22;6486;51.034;5.262;2023-04-15T03:21:08;10.50;57.70
12839;DHT22;6486;51.034;5.262;2023-04-15T03:23:34;10.40;57.70
12839;DHT22;6486;51.034;5.262;2023-04-15T03:26:03;10.40;57.60
12839;DHT22;6486;51.034;5.262;2023-04-15T03:28:29;10.20;57.50
12839;DHT22;6486;51.034;5.262;2023-04-15T03:30:55;10.40;57.70
12839;DHT22;6486;51.034;5.262;2023-04-15T03:33:21;10.40;57.70
12839;DHT22;6486;51.034;5.262;2023-04-15T03:35:46;10.40;57.70
12839;DHT22;6486;51.034;5.262;2023-04-15T03:38:12;10.40;57.70
12839;DHT22;6486;51.034;5.262;2023-04-15T03:40:41;10.40;57.70
12839;DHT22;6486;51.034;5.262;2023-04-15T03:43:06;10.40;57.80
12839;DHT22;6486;51.034;5.262;2023-04-15T03:45:32;10.40;57.90
12839;DHT22;6486;51.034;5.262;2023-04-15T03:47:57;10.40;58.00
12839;DHT22;6486;51.034;5.262;2023-04-15T03:50:23;10.40;58.10
12839;DHT22;6486;51.034;5.262;2023-04-15T03:52:49;10.40;58.10
12839;DHT22;6486;51.034;5.262;2023-04-15T03:55:15;10.40;58.20
12839;DHT22;6486;51.034;5.262;2023-04-15T03:57:40;10.40;58.30
12839;DHT22;6486;51.034;5.262;2023-04-15T04:00:07;10.40;58.30
12839;DHT22;6486;51.034;5.262;2023-04-15T04:02:36;10.30;58.30
12839;DHT22;6486;51.034;5.262;2023-04-15T04:05:02;10.30;59.00
12839;DHT22;6486;51.034;5.262;2023-04-15T04:07:28;10.30;58.40
12839;DHT22;6486;51.034;5.262;2023-04-15T04:09:55;10.30;58.40
12839;DHT22;6486;51.034;5.262;2023-04-15T04:12:21;10.20;58.40
12839;DHT22;6486;51.034;5.262;2023-04-15T04:14:47;10.20;59.00
12839;DHT22;6486;51.034;5.262;2023-04-15T04:17:12;10.20;58.50
12839;DHT22;6486;51.034;5.262;2023-04-15T04:19:38;10.20;58.40
12839;DHT22;6486;51.034;5.262;2023-04-15T04:22:03;10.20;58.40
12839;DHT22;6486;51.034;5.262;2023-04-15T04:24:30;10.20;58.40
12839;DHT22;6486;51.034;5.262;2023-04-15T04:26:55;10.10;58.40
12839;DHT22;6486;51.034;5.262;2023-04-15T04:29:21;10.10;58.60
12839;DHT22;6486;51.034;5.262;2023-04-15T04:31:47;10.00;58.70
12839;DHT22;6486;51.034;5.262;2023-04-15T04:34:13;10.00;58.70
12839;DHT22;6486;51.034;5.262;2023-04-15T04:36:39;10.10;58.80
12839;DHT22;6486;51.034;5.262;2023-04-15T04:39:04;10.10;58.80
12839;DHT22;6486;51.034;5.262;2023-04-15T04:41:30;10.10;58.80
12839;DHT22;6486;51.034;5.262;2023-04-15T04:43:56;10.10;58.80
12839;DHT22;6486;51.034;5.262;2023-04-15T04:46:22;10.10;58.80
12839;DHT22;6486;51.034;5.262;2023-04-15T04:48:48;10.00;58.80
12839;DHT22;6486;51.034;5.262;2023-04-15T04:51:13;10.00;59.50
12839;DHT22;6486;51.034;5.262;2023-04-15T04:53:39;10.10;59.50
12839;DHT22;6486;51.034;5.262;2023-04-15T04:56:05;10.10;58.90
12839;DHT22;6486;51.034;5.262;2023-04-15T04:58:30;10.10;58.90
12839;DHT22;6486;51.034;5.262;2023-04-15T05:00:56;10.10;58.80
12839;DHT22;6486;51.034;5.262;2023-04-15T05:03:22;10.10;59.30
12839;DHT22;6486;51.034;5.262;2023-04-15T05:05:48;10.10;58.70
12839;DHT22;6486;51.034;5.262;2023-04-15T05:08:14;10.10;58.70
12839;DHT22;6486;51.034;5.262;2023-04-15T05:10:40;10.10;58.70
12839;DHT22;6486;51.034;5.262;2023-04-15T05:13:06;10.10;58.70
12839;DHT22;6486;51.034;5.262;2023-04-15T05:15:32;10.10;58.70
12839;DHT22;6486;51.034;5.262;2023-04-15T05:17:59;10.10;58.70
12839;DHT22;6486;51.034;5.262;2023-04-15T05:20:25;10.10;58.80
12839;DHT22;6486;51.034;5.262;2023-04-15T05:22:50;10.10;58.90
12839;DHT22;6486;51.034;5.262;2023-04-15T05:25:16;10.10;59.00
12839;DHT22;6486;51.034;5.262;2023-04-15T05:27:42;10.10;59.10
12839;DHT22;6486;51.034;5.262;2023-04-15T05:30:08;10.10;59.20
12839;DHT22;6486;51.034;5.262;2023-04-15T05:32:34;10.10;59.30
12839;DHT22;6486;51.034;5.262;2023-04-15T05:34:59;10.10;59.40
12839;DHT22;6486;51.034;5.262;2023-04-15T05:37:25;10.20;59.50
12839;DHT22;6486;51.034;5.262;2023-04-15T05:39:51;10.20;59.60
12839;DHT22;6486;51.034;5.262;2023-04-15T05:42:17;10.20;59.60
12839;DHT22;6486;51.034;5.262;2023-04-15T05:44:42;10.20;59.70
12839;DHT22;6486;51.034;5.262;2023-04-15T05:47:08;10.30;59.80
12839;DHT22;6486;51.034;5.262;2023-04-15T05:49:34;10.30;59.80
12839;DHT22;6486;51.034;5.262;2023-04-15T05:52:00;10.40;59.80
12839;DHT22;6486;51.034;5.262;2023-04-15T05:54:26;10.40;59.80
12839;DHT22;6486;51.034;5.262;2023-04-15T05:56:52;10.50;60.00
12839;DHT22;6486;51.034;5.262;2023-04-15T05:59:18;10.50;60.00
12839;DHT22;6486;51.034;5.262;2023-04-15T06:01:43;10.60;60.00
12839;DHT22;6486;51.034;5.262;2023-04-15T06:04:09;10.60;60.10
12839;DHT22;6486;51.034;5.262;2023-04-15T06:06:36;10.70;60.10
12839;DHT22;6486;51.034;5.262;2023-04-15T06:09:02;10.70;60.00
12839;DHT22;6486;51.034;5.262;2023-04-15T06:11:28;10.80;59.90
12839;DHT22;6486;51.034;5.262;2023-04-15T06:13:54;10.90;59.80
12839;DHT22;6486;51.034;5.262;2023-04-15T06:16:19;11.00;59.70
12839;DHT22;6486;51.034;5.262;2023-04-15T06:18:45;11.10;59.50
12839;DHT22;6486;51.034;5.262;2023-04-15T06:21:10;11.20;59.40
12839;DHT22;6486;51.034;5.262;2023-04-15T06:23:36;11.30;59.20
12839;DHT22;6486;51.034;5.262;2023-04-15T06:26:02;11.40;59.00
12839;DHT22;6486;51.034;5.262;2023-04-15T06:28:28;11.50;58.90
12839;DHT22;6486;51.034;5.262;2023-04-15T06:30:53;11.60;58.80
12839;DHT22;6486;51.034;5.262;2023-04-15T06:33:19;11.70;58.60
12839;DHT22;6486;51.034;5.262;2023-04-15T06:35:45;11.80;58.40
12839;DHT22;6486;51.034;5.262;2023-04-15T06:38:11;11.90;58.20
12839;DHT22;6486;51.034;5.262;2023-04-15T06:40:37;12.00;58.10
12839;DHT22;6486;51.034;5.262;2023-04-15T06:43:02;12.20;57.90
12839;DHT22;6486;51.034;5.262;2023-04-15T06:45:29;12.30;57.80
12839;DHT22;6486;51.034;5.262;2023-04-15T06:47:55;12.40;57.70
12839;DHT22;6486;51.034;5.262;2023-04-15T06:50:21;12.40;57.50
12839;DHT22;6486;51.034;5.262;2023-04-15T06:52:47;12.50;57.40
12839;DHT22;6486;51.034;5.262;2023-04-15T06:55:13;12.70;57.40
12839;DHT22;6486;51.034;5.262;2023-04-15T06:57:39;12.80;57.10
12839;DHT22;6486;51.034;5.262;2023-04-15T07:00:07;12.90;56.90
12839;DHT22;6486;51.034;5.262;2023-04-15T07:02:33;12.90;56.70
12839;DHT22;6486;51.034;5.262;2023-04-15T07:04:58;13.00;56.50
12839;DHT22;6486;51.034;5.262;2023-04-15T07:07:24;13.10;56.50
12839;DHT22;6486;51.034;5.262;2023-04-15T07:09:50;13.10;56.20
12839;DHT22;6486;51.034;5.262;2023-04-15T07:12:16;13.20;56.10
12839;DHT22;6486;51.034;5.262;2023-04-15T07:14:42;13.40;56.00
12839;DHT22;6486;51.034;5.262;2023-04-15T07:17:08;13.40;55.90
12839;DHT22;6486;51.034;5.262;2023-04-15T07:19:33;13.50;55.70
12839;DHT22;6486;51.034;5.262;2023-04-15T07:22:00;13.60;55.70
12839;DHT22;6486;51.034;5.262;2023-04-15T07:24:25;13.60;55.50
12839;DHT22;6486;51.034;5.262;2023-04-15T07:26:53;13.70;55.40
12839;DHT22;6486;51.034;5.262;2023-04-15T07:29:19;13.80;55.30
12839;DHT22;6486;51.034;5.262;2023-04-15T07:31:45;13.90;55.30
12839;DHT22;6486;51.034;5.262;2023-04-15T07:34:10;14.00;55.20
12839;DHT22;6486;51.034;5.262;2023-04-15T07:36:36;14.10;55.10
12839;DHT22;6486;51.034;5.262;2023-04-15T07:39:01;14.20;54.90
12839;DHT22;6486;51.034;5.262;2023-04-15T07:41:29;14.30;54.80
12839;DHT22;6486;51.034;5.262;2023-04-15T07:43:55;14.40;54.70
12839;DHT22;6486;51.034;5.262;2023-04-15T07:46:20;14.50;54.60
12839;DHT22;6486;51.034;5.262;2023-04-15T07:48:48;14.60;54.50
12839;DHT22;6486;51.034;5.262;2023-04-15T07:51:13;14.60;54.30
12839;DHT22;6486;51.034;5.262;2023-04-15T07:53:39;14.70;54.10
12839;DHT22;6486;51.034;5.262;2023-04-15T07:56:05;14.80;54.00
12839;DHT22;6486;51.034;5.262;2023-04-15T07:58:31;14.90;53.90
12839;DHT22;6486;51.034;5.262;2023-04-15T08:00:56;14.90;53.90
12839;DHT22;6486;51.034;5.262;2023-04-15T08:03:22;15.00;54.30
12839;DHT22;6486;51.034;5.262;2023-04-15T08:05:48;15.10;53.70
12839;DHT22;6486;51.034;5.262;2023-04-15T08:08:13;15.20;53.80
12839;DHT22;6486;51.034;5.262;2023-04-15T08:10:39;15.20;53.60
12839;DHT22;6486;51.034;5.262;2023-04-15T08:13:05;15.30;53.70
12839;DHT22;6486;51.034;5.262;2023-04-15T08:15:31;15.40;53.70
12839;DHT22;6486;51.034;5.262;2023-04-15T08:17:57;15.50;53.70
12839;DHT22;6486;51.034;5.262;2023-04-15T08:20:25;15.50;53.40
12839;DHT22;6486;51.034;5.262;2023-04-15T08:22:50;15.60;53.40
12839;DHT22;6486;51.034;5.262;2023-04-15T08:25:17;15.60;53.30
12839;DHT22;6486;51.034;5.262;2023-04-15T08:27:43;15.70;53.40
12839;DHT22;6486;51.034;5.262;2023-04-15T08:30:09;15.80;53.30
12839;DHT22;6486;51.034;5.262;2023-04-15T08:32:34;15.90;53.30
12839;DHT22;6486;51.034;5.262;2023-04-15T08:35:00;16.00;53.10
12839;DHT22;6486;51.034;5.262;2023-04-15T08:37:26;16.10;53.00
12839;DHT22;6486;51.034;5.262;2023-04-15T08:39:52;16.20;52.90
12839;DHT22;6486;51.034;5.262;2023-04-15T08:42:22;16.30;53.40
12839;DHT22;6486;51.034;5.262;2023-04-15T08:44:52;16.40;52.50
12839;DHT22;6486;51.034;5.262;2023-04-15T08:47:20;16.40;52.40
12839;DHT22;6486;51.034;5.262;2023-04-15T08:49:50;16.50;52.40
12839;DHT22;6486;51.034;5.262;2023-04-15T08:52:18;16.60;52.40
12839;DHT22;6486;51.034;5.262;2023-04-15T08:54:44;16.70;52.10
12839;DHT22;6486;51.034;5.262;2023-04-15T08:57:11;16.70;52.00
12839;DHT22;6486;51.034;5.262;2023-04-15T08:59:37;16.90;51.80
12839;DHT22;6486;51.034;5.262;2023-04-15T09:02:03;17.00;51.50
12839;DHT22;6486;51.034;5.262;2023-04-15T09:04:28;17.00;51.30
12839;DHT22;6486;51.034;5.262;2023-04-15T09:06:54;17.10;51.20
12839;DHT22;6486;51.034;5.262;2023-04-15T09:09:21;17.20;50.90
12839;DHT22;6486;51.034;5.262;2023-04-15T09:11:47;17.30;50.50
12839;DHT22;6486;51.034;5.262;2023-04-15T09:14:14;17.30;50.20
12839;DHT22;6486;51.034;5.262;2023-04-15T09:16:56;17.40;50.20
12839;DHT22;6486;51.034;5.262;2023-04-15T09:19:23;17.40;50.20
12839;DHT22;6486;51.034;5.262;2023-04-15T09:21:57;17.50;50.20
12839;DHT22;6486;51.034;5.262;2023-04-15T09:24:23;17.60;50.10
12839;DHT22;6486;51.034;5.262;2023-04-15T09:26:52;17.70;50.10
12839;DHT22;6486;51.034;5.262;2023-04-15T09:29:18;17.80;50.00
12839;DHT22;6486;51.034;5.262;2023-04-15T09:31:44;18.00;49.80
12839;DHT22;6486;51.034;5.262;2023-04-15T09:34:10;18.10;49.30
12839;DHT22;6486;51.034;5.262;2023-04-15T09:36:56;18.30;49.20
12839;DHT22;6486;51.034;5.262;2023-04-15T09:39:22;18.40;48.80
12839;DHT22;6486;51.034;5.262;2023-04-15T09:42:04;18.60;48.40
12839;DHT22;6486;51.034;5.262;2023-04-15T09:44:31;18.60;47.40
12839;DHT22;6486;51.034;5.262;2023-04-15T09:46:56;18.60;47.20
12839;DHT22;6486;51.034;5.262;2023-04-15T09:49:22;18.70;47.10
12839;DHT22;6486;51.034;5.262;2023-04-15T09:51:48;18.80;47.30
12839;DHT22;6486;51.034;5.262;2023-04-15T09:54:18;18.90;47.30
12839;DHT22;6486;51.034;5.262;2023-04-15T09:56:46;19.00;47.20
12839;DHT22;6486;51.034;5.262;2023-04-15T09:59:11;19.10;46.80
12839;DHT22;6486;51.034;5.262;2023-04-15T10:01:37;19.20;46.50
12839;DHT22;6486;51.034;5.262;2023-04-15T10:04:05;19.20;46.20
12839;DHT22;6486;51.034;5.262;2023-04-15T10:06:31;19.30;45.50
12839;DHT22;6486;51.034;5.262;2023-04-15T10:08:58;19.40;45.40
12839;DHT22;6486;51.034;5.262;2023-04-15T10:11:27;19.50;45.10
12839;DHT22;6486;51.034;5.262;2023-04-15T10:13:54;19.60;44.50
12839;DHT22;6486;51.034;5.262;2023-04-15T10:16:21;19.70;44.00
12839;DHT22;6486;51.034;5.262;2023-04-15T10:18:52;19.90;43.70
12839;DHT22;6486;51.034;5.262;2023-04-15T10:21:20;20.00;43.00
12839;DHT22;6486;51.034;5.262;2023-04-15T10:23:47;20.10;42.70
12839;DHT22;6486;51.034;5.262;2023-04-15T10:26:13;20.20;42.10
12839;DHT22;6486;51.034;5.262;2023-04-15T10:28:40;20.20;42.10
12839;DHT22;6486;51.034;5.262;2023-04-15T10:31:06;20.30;42.00
12839;DHT22;6486;51.034;5.262;2023-04-15T10:33:32;20.30;41.30
12839;DHT22;6486;51.034;5.262;2023-04-15T10:36:00;20.40;41.10
12839;DHT22;6486;51.034;5.262;2023-04-15T10:43:54;20.70;40.50
12839;DHT22;6486;51.034;5.262;2023-04-15T10:49:15;20.80;39.90
12839;DHT22;6486;51.034;5.262;2023-04-15T10:51:46;20.90;39.50
12839;DHT22;6486;51.034;5.262;2023-04-15T10:57:22;20.90;39.70
12839;DHT22;6486;51.034;5.262;2023-04-15T11:00:03;20.90;39.20
12839;DHT22;6486;51.034;5.262;2023-04-15T11:02:54;20.80;38.80
12839;DHT22;6486;51.034;5.262;2023-04-15T11:08:14;20.60;38.50
12839;DHT22;6486;51.034;5.262;2023-04-15T11:13:15;20.10;37.90
12839;DHT22;6486;51.034;5.262;2023-04-15T11:15:45;20.10;38.50
12839;DHT22;6486;51.034;5.262;2023-04-15T11:18:27;20.20;38.70
12839;DHT22;6486;51.034;5.262;2023-04-15T11:20:57;20.20;39.00
12839;DHT22;6486;51.034;5.262;2023-04-15T11:25:58;20.40;38.20
12839;DHT22;6486;51.034;5.262;2023-04-15T11:28:28;20.30;37.70
12839;DHT22;6486;51.034;5.262;2023-04-15T11:30:55;20.30;37.80
12839;DHT22;6486;51.034;5.262;2023-04-15T11:33:21;20.30;37.80
12839;DHT22;6486;51.034;5.262;2023-04-15T11:35:47;20.30;37.70
12839;DHT22;6486;51.034;5.262;2023-04-15T11:38:13;20.40;37.90
12839;DHT22;6486;51.034;5.262;2023-04-15T11:40:40;20.50;38.20
12839;DHT22;6486;51.034;5.262;2023-04-15T11:43:07;20.60;37.90
12839;DHT22;6486;51.034;5.262;2023-04-15T11:45:33;20.80;38.20
12839;DHT22;6486;51.034;5.262;2023-04-15T11:48:10;21.00;38.40
12839;DHT22;6486;51.034;5.262;2023-04-15T11:50:38;21.20;38.40
12839;DHT22;6486;51.034;5.262;2023-04-15T11:53:11;21.40;38.40
12839;DHT22;6486;51.034;5.262;2023-04-15T11:55:48;21.60;38.10
12839;DHT22;6486;51.034;5.262;2023-04-15T12:03:21;21.40;36.20
12839;DHT22;6486;51.034;5.262;2023-04-15T12:08:51;21.30;36.00
12839;DHT22;6486;51.034;5.262;2023-04-15T12:11:21;21.20;35.80
12839;DHT22;6486;51.034;5.262;2023-04-15T12:16:24;20.90;35.00
12839;DHT22;6486;51.034;5.262;2023-04-15T12:18:51;20.80;34.90
12839;DHT22;6486;51.034;5.262;2023-04-15T12:21:25;20.80;35.20
12839;DHT22;6486;51.034;5.262;2023-04-15T12:23:52;21.10;35.20
12839;DHT22;6486;51.034;5.262;2023-04-15T12:26:29;21.30;34.90
12839;DHT22;6486;51.034;5.262;2023-04-15T12:29:03;21.50;34.50
12839;DHT22;6486;51.034;5.262;2023-04-15T12:31:29;21.70;34.70
12839;DHT22;6486;51.034;5.262;2023-04-15T12:33:56;21.90;34.50
12839;DHT22;6486;51.034;5.262;2023-04-15T12:36:22;22.00;33.80
12839;DHT22;6486;51.034;5.262;2023-04-15T12:38:48;22.00;32.80
12839;DHT22;6486;51.034;5.262;2023-04-15T12:41:14;22.00;32.50
12839;DHT22;6486;51.034;5.262;2023-04-15T12:43:39;22.00;32.10
12839;DHT22;6486;51.034;5.262;2023-04-15T12:46:06;22.00;33.20
12839;DHT22;6486;51.034;5.262;2023-04-15T12:48:33;22.10;32.70
12839;DHT22;6486;51.034;5.262;2023-04-15T12:50:59;22.20;33.00
12839;DHT22;6486;51.034;5.262;2023-04-15T12:53:24;22.30;32.90
12839;DHT22;6486;51.034;5.262;2023-04-15T12:55:50;22.40;32.70
12839;DHT22;6486;51.034;5.262;2023-04-15T12:58:16;22.30;31.30
12839;DHT22;6486;51.034;5.262;2023-04-15T13:00:42;22.30;31.70
12839;DHT22;6486;51.034;5.262;2023-04-15T13:03:07;22.20;31.70
12839;DHT22;6486;51.034;5.262;2023-04-15T13:05:33;22.20;32.10
12839;DHT22;6486;51.034;5.262;2023-04-15T13:08:01;22.10;32.40
12839;DHT22;6486;51.034;5.262;2023-04-15T13:10:27;22.10;32.20
12839;DHT22;6486;51.034;5.262;2023-04-15T13:12:53;21.90;32.50
12839;DHT22;6486;51.034;5.262;2023-04-15T13:15:21;21.70;32.70
12839;DHT22;6486;51.034;5.262;2023-04-15T13:17:47;21.80;33.40
12839;DHT22;6486;51.034;5.262;2023-04-15T13:20:13;21.80;32.80
12839;DHT22;6486;51.034;5.262;2023-04-15T13:22:38;21.50;32.70
12839;DHT22;6486;51.034;5.262;2023-04-15T13:25:05;21.20;32.50
12839;DHT22;6486;51.034;5.262;2023-04-15T13:27:31;21.10;32.50
12839;DHT22;6486;51.034;5.262;2023-04-15T13:29:57;21.20;33.00
12839;DHT22;6486;51.034;5.262;2023-04-15T13:32:24;21.30;33.40
12839;DHT22;6486;51.034;5.262;2023-04-15T13:34:49;21.40;33.80
12839;DHT22;6486;51.034;5.262;2023-04-15T13:37:15;21.50;34.00
12839;DHT22;6486;51.034;5.262;2023-04-15T13:39:41;21.70;34.50
12839;DHT22;6486;51.034;5.262;2023-04-15T13:42:06;21.70;34.80
12839;DHT22;6486;51.034;5.262;2023-04-15T13:44:32;21.50;35.00
12839;DHT22;6486;51.034;5.262;2023-04-15T13:46:58;21.50;35.10
12839;DHT22;6486;51.034;5.262;2023-04-15T13:49:23;21.60;35.00
12839;DHT22;6486;51.034;5.262;2023-04-15T13:51:50;21.70;34.90
12839;DHT22;6486;51.034;5.262;2023-04-15T13:54:15;21.70;34.80
12839;DHT22;6486;51.034;5.262;2023-04-15T13:56:41;21.40;34.40
12839;DHT22;6486;51.034;5.262;2023-04-15T13:59:07;21.40;34.90
12839;DHT22;6486;51.034;5.262;2023-04-15T14:01:33;21.50;35.10
12839;DHT22;6486;51.034;5.262;2023-04-15T14:03:59;21.60;35.30
12839;DHT22;6486;51.034;5.262;2023-04-15T14:06:25;21.70;34.70
12839;DHT22;6486;51.034;5.262;2023-04-15T14:08:52;21.80;34.10
12839;DHT22;6486;51.034;5.262;2023-04-15T14:11:17;21.80;34.10
12839;DHT22;6486;51.034;5.262;2023-04-15T14:13:43;21.90;34.10
12839;DHT22;6486;51.034;5.262;2023-04-15T14:16:09;21.90;34.20
12839;DHT22;6486;51.034;5.262;2023-04-15T14:18:34;21.80;34.70
12839;DHT22;6486;51.034;5.262;2023-04-15T14:21:01;21.80;34.60
12839;DHT22;6486;51.034;5.262;2023-04-15T14:23:27;21.90;34.30
12839;DHT22;6486;51.034;5.262;2023-04-15T14:25:53;21.90;34.10
12839;DHT22;6486;51.034;5.262;2023-04-15T14:28:19;21.80;34.70
12839;DHT22;6486;51.034;5.262;2023-04-15T14:30:44;21.60;35.10
12839;DHT22;6486;51.034;5.262;2023-04-15T14:33:10;21.40;35.30
12839;DHT22;6486;51.034;5.262;2023-04-15T14:35:36;21.20;35.50
12839;DHT22;6486;51.034;5.262;2023-04-15T14:38:02;21.20;35.90
12839;DHT22;6486;51.034;5.262;2023-04-15T14:40:28;21.40;36.70
12839;DHT22;6486;51.034;5.262;2023-04-15T14:42:53;21.40;35.10
12839;DHT22;6486;51.034;5.262;2023-04-15T14:45:19;21.40;35.00
12839;DHT22;6486;51.034;5.262;2023-04-15T14:47:45;21.50;35.50
12839;DHT22;6486;51.034;5.262;2023-04-15T14:50:11;21.60;35.80
12839;DHT22;6486;51.034;5.262;2023-04-15T14:52:37;21.60;36.10
12839;DHT22;6486;51.034;5.262;2023-04-15T14:55:08;21.90;36.20
12839;DHT22;6486;51.034;5.262;2023-04-15T14:57:38;21.90;35.00
12839;DHT22;6486;51.034;5.262;2023-04-15T15:00:05;22.00;35.40
12839;DHT22;6486;51.034;5.262;2023-04-15T15:02:32;22.10;35.50
12839;DHT22;6486;51.034;5.262;2023-04-15T15:04:59;22.30;35.60
12839;DHT22;6486;51.034;5.262;2023-04-15T15:07:25;22.40;35.30
12839;DHT22;6486;51.034;5.262;2023-04-15T15:09:50;22.40;34.30
12839;DHT22;6486;51.034;5.262;2023-04-15T15:12:16;22.30;34.40
12839;DHT22;6486;51.034;5.262;2023-04-15T15:14:42;22.30;34.40
12839;DHT22;6486;51.034;5.262;2023-04-15T15:17:08;22.40;34.50
12839;DHT22;6486;51.034;5.262;2023-04-15T15:19:34;22.60;34.60
12839;DHT22;6486;51.034;5.262;2023-04-15T15:22:00;22.70;34.50
12839;DHT22;6486;51.034;5.262;2023-04-15T15:24:26;22.70;34.10
12839;DHT22;6486;51.034;5.262;2023-04-15T15:26:51;22.40;33.90
12839;DHT22;6486;51.034;5.262;2023-04-15T15:29:17;22.00;34.30
12839;DHT22;6486;51.034;5.262;2023-04-15T15:31:42;21.90;34.70
12839;DHT22;6486;51.034;5.262;2023-04-15T15:34:08;21.90;35.00
12839;DHT22;6486;51.034;5.262;2023-04-15T15:36:33;21.80;35.20
12839;DHT22;6486;51.034;5.262;2023-04-15T15:38:59;21.60;35.00
12839;DHT22;6486;51.034;5.262;2023-04-15T15:41:25;21.30;35.00
12839;DHT22;6486;51.034;5.262;2023-04-15T15:43:53;21.20;35.70
12839;DHT22;6486;51.034;5.262;2023-04-15T15:46:19;21.00;35.80
12839;DHT22;6486;51.034;5.262;2023-04-15T15:48:45;20.70;36.10
12839;DHT22;6486;51.034;5.262;2023-04-15T15:51:10;20.80;36.60
12839;DHT22;6486;51.034;5.262;2023-04-15T15:53:37;20.80;36.60
12839;DHT22;6486;51.034;5.262;2023-04-15T15:56:04;20.60;36.80
12839;DHT22;6486;51.034;5.262;2023-04-15T15:58:30;20.50;36.90
12839;DHT22;6486;51.034;5.262;2023-04-15T16:00:55;20.90;37.30
12839;DHT22;6486;51.034;5.262;2023-04-15T16:03:24;21.60;37.20
12839;DHT22;6486;51.034;5.262;2023-04-15T16:05:50;22.50;36.50
12839;DHT22;6486;51.034;5.262;2023-04-15T16:08:15;23.50;36.40
12839;DHT22;6486;51.034;5.262;2023-04-15T16:10:41;24.40;34.60